sensor_id;sensor_type;location;lat;lon;timestamp;temperature;humidity
39493;DHT22;25176;51.060;3.720;2023-08-21T00:00:29;23.20;77.10
39493;DHT22;25176;51.060;3.720;2023-08-21T00:02:54;23.10;76.90
39493;DHT22;25176;51.060;3.720;2023-08-21T00:05:20;23.10;76.90
39493;DHT22;25176;51.060;3.720;2023-08-21T00:07:46;23.00;76.60
39493;DHT22;25176;51.060;3.720;2023-08-21T00:10:11;22.90;76.50
39493;DHT22;25176;51.060;3.720;2023-08-21T00:12:39;22.90;77.20
39493;DHT22;25176;51.060;3.720;2023-08-21T00:15:05;22.90;76.50
39493;DHT22;25176;51.060;3.720;2023-08-21T00:17:30;22.90;76.30
39493;DHT22;25176;51.060;3.720;2023-08-21T00:19:56;22.90;76.40
39493;DHT22;25176;51.060;3.720;2023-08-21T00:22:22;22.80;76.50
39493;DHT22;25176;51.060;3.720;2023-08-21T00:24:47;22.80;76.70
39493;DHT22;25176;51.060;3.720;2023-08-21T00:27:13;22.80;76.60
39493;DHT22;25176;51.060;3.720;2023-08-21T00:29:38;22.80;76.60
39493;DHT22;25176;51.060;3.720;2023-08-21T00:32:04;22.80;76.80
39493;DHT22;25176;51.060;3.720;2023-08-21T00:34:32;22.80;76.70
39493;DHT22;25176;51.060;3.720;2023-08-21T00:36:57;22.70;76.70
39493;DHT22;25176;51.060;3.720;2023-08-21T00:39:23;22.70;76.90
39493;DHT22;25176;51.060;3.720;2023-08-21T00:41:48;22.70;77.00
39493;DHT22;25176;51.060;3.720;2023-08-21T00:44:14;22.70;77.20
39493;DHT22;25176;51.060;3.720;2023-08-21T00:46:39;22.60;77.20
39493;DHT22;25176;51.060;3.720;2023-08-21T00:49:05;22.60;77.50
39493;DHT22;25176;51.060;3.720;2023-08-21T00:51:31;22.60;77.50
39493;DHT22;25176;51.060;3.720;2023-08-21T00:53:56;22.60;77.40
39493;DHT22;25176;51.060;3.720;2023-08-21T00:56:22;22.60;77.70
39493;DHT22;25176;51.060;3.720;2023-08-21T00:58:48;22.60;77.30
39493;DHT22;25176;51.060;3.720;2023-08-21T01:01:13;22.70;77.40
39493;DHT22;25176;51.060;3.720;2023-08-21T01:03:41;22.70;77.30
39493;DHT22;25176;51.060;3.720;2023-08-21T01:06:06;22.70;77.60
39493;DHT22;25176;51.060;3.720;2023-08-21T01:16:23;22.80;77.40
39493;DHT22;25176;51.060;3.720;2023-08-21T01:18:49;22.80;77.40
39493;DHT22;25176;51.060;3.720;2023-08-21T01:21:15;22.80;77.30
39493;DHT22;25176;51.060;3.720;2023-08-21T01:23:40;22.80;77.40
39493;DHT22;25176;51.060;3.720;2023-08-21T01:26:07;22.90;77.20
39493;DHT22;25176;51.060;3.720;2023-08-21T01:28:33;22.90;77.30
39493;DHT22;25176;51.060;3.720;2023-08-21T01:31:00;22.90;77.10
39493;DHT22;25176;51.060;3.720;2023-08-21T01:33:27;22.90;76.90
39493;DHT22;25176;51.060;3.720;2023-08-21T01:35:53;22.90;76.80
39493;DHT22;25176;51.060;3.720;2023-08-21T01:38:19;22.90;76.70
39493;DHT22;25176;51.060;3.720;2023-08-21T01:40:46;22.90;77.00
39493;DHT22;25176;51.060;3.720;2023-08-21T01:43:12;22.90;76.90
39493;DHT22;25176;51.060;3.720;2023-08-21T01:45:37;22.80;77.00
39493;DHT22;25176;51.060;3.720;2023-08-21T01:48:03;22.80;77.10
39493;DHT22;25176;51.060;3.720;2023-08-21T01:50:28;22.80;77.00
39493;DHT22;25176;51.060;3.720;2023-08-21T01:52:54;22.80;77.00
39493;DHT22;25176;51.060;3.720;2023-08-21T01:55:19;22.80;76.90
39493;DHT22;25176;51.060;3.720;2023-08-21T01:57:45;22.70;77.30
39493;DHT22;25176;51.060;3.720;2023-08-21T02:00:10;22.70;77.50
39493;DHT22;25176;51.060;3.720;2023-08-21T02:02:37;22.70;77.30
39493;DHT22;25176;51.060;3.720;2023-08-21T02:05:02;22.70;77.30
39493;DHT22;25176;51.060;3.720;2023-08-21T02:07:29;22.70;77.10
39493;DHT22;25176;51.060;3.720;2023-08-21T02:09:54;22.70;77.20
39493;DHT22;25176;51.060;3.720;2023-08-21T02:12:20;22.70;77.20
39493;DHT22;25176;51.060;3.720;2023-08-21T02:14:45;22.60;77.20
39493;DHT22;25176;51.060;3.720;2023-08-21T02:17:11;22.60;77.30
39493;DHT22;25176;51.060;3.720;2023-08-21T02:19:36;22.60;77.30
39493;DHT22;25176;51.060;3.720;2023-08-21T02:22:02;22.50;77.40
39493;DHT22;25176;51.060;3.720;2023-08-21T02:24:27;22.50;77.30
39493;DHT22;25176;51.060;3.720;2023-08-21T02:26:53;22.60;77.10
39493;DHT22;25176;51.060;3.720;2023-08-21T02:29:18;22.60;77.20
39493;DHT22;25176;51.060;3.720;2023-08-21T02:31:43;22.50;77.30
39493;DHT22;25176;51.060;3.720;2023-08-21T02:34:09;22.50;77.10
39493;DHT22;25176;51.060;3.720;2023-08-21T02:36:34;22.50;77.20
39493;DHT22;25176;51.060;3.720;2023-08-21T02:39:00;22.50;77.40
39493;DHT22;25176;51.060;3.720;2023-08-21T02:41:25;22.50;77.80
39493;DHT22;25176;51.060;3.720;2023-08-21T02:43:51;22.50;77.70
39493;DHT22;25176;51.060;3.720;2023-08-21T02:46:16;22.50;77.80
39493;DHT22;25176;51.060;3.720;2023-08-21T02:48:42;22.40;78.10
39493;DHT22;25176;51.060;3.720;2023-08-21T02:51:08;22.40;78.30
39493;DHT22;25176;51.060;3.720;2023-08-21T02:53:34;22.30;78.60
39493;DHT22;25176;51.060;3.720;2023-08-21T02:55:59;22.30;78.70
39493;DHT22;25176;51.060;3.720;2023-08-21T02:58:24;22.30;79.00
39493;DHT22;25176;51.060;3.720;2023-08-21T03:00:50;22.20;79.20
39493;DHT22;25176;51.060;3.720;2023-08-21T03:03:15;22.20;79.70
39493;DHT22;25176;51.060;3.720;2023-08-21T03:05:41;22.10;80.00
39493;DHT22;25176;51.060;3.720;2023-08-21T03:08:07;22.10;80.10
39493;DHT22;25176;51.060;3.720;2023-08-21T03:10:33;22.00;80.40
39493;DHT22;25176;51.060;3.720;2023-08-21T03:12:59;22.00;80.30
39493;DHT22;25176;51.060;3.720;2023-08-21T03:15:25;22.10;80.40
39493;DHT22;25176;51.060;3.720;2023-08-21T03:17:50;22.00;80.50
39493;DHT22;25176;51.060;3.720;2023-08-21T03:20:16;21.90;80.60
39493;DHT22;25176;51.060;3.720;2023-08-21T03:22:43;22.00;80.90
39493;DHT22;25176;51.060;3.720;2023-08-21T03:25:08;21.90;80.90
39493;DHT22;25176;51.060;3.720;2023-08-21T03:27:34;21.90;81.20
39493;DHT22;25176;51.060;3.720;2023-08-21T03:30:04;21.90;81.40
39493;DHT22;25176;51.060;3.720;2023-08-21T03:32:30;21.80;81.80
39493;DHT22;25176;51.060;3.720;2023-08-21T03:34:55;21.70;82.00
39493;DHT22;25176;51.060;3.720;2023-08-21T03:37:21;21.70;82.40
39493;DHT22;25176;51.060;3.720;2023-08-21T03:39:47;21.60;82.60
39493;DHT22;25176;51.060;3.720;2023-08-21T03:42:12;21.60;83.00
39493;DHT22;25176;51.060;3.720;2023-08-21T03:44:39;21.50;83.60
39493;DHT22;25176;51.060;3.720;2023-08-21T03:47:04;21.60;83.50
39493;DHT22;25176;51.060;3.720;2023-08-21T03:49:30;21.60;83.20
39493;DHT22;25176;51.060;3.720;2023-08-21T03:51:56;21.60;83.20
39493;DHT22;25176;51.060;3.720;2023-08-21T03:54:21;21.60;83.20
39493;DHT22;25176;51.060;3.720;2023-08-21T03:56:47;21.60;83.10
39493;DHT22;25176;51.060;3.720;2023-08-21T03:59:12;21.60;83.00
39493;DHT22;25176;51.060;3.720;2023-08-21T04:01:38;21.60;83.10
39493;DHT22;25176;51.060;3.720;2023-08-21T04:04:03;21.60;83.20
39493;DHT22;25176;51.060;3.720;2023-08-21T04:06:29;21.50;83.10
39493;DHT22;25176;51.060;3.720;2023-08-21T04:08:54;21.50;83.20
39493;DHT22;25176;51.060;3.720;2023-08-21T04:11:20;21.50;83.40
39493;DHT22;25176;51.060;3.720;2023-08-21T04:13:45;21.40;83.30
39493;DHT22;25176;51.060;3.720;2023-08-21T04:16:11;21.50;83.60
39493;DHT22;25176;51.060;3.720;2023-08-21T04:18:37;21.30;83.80
39493;DHT22;25176;51.060;3.720;2023-08-21T04:21:04;21.30;83.80
39493;DHT22;25176;51.060;3.720;2023-08-21T04:23:29;21.30;84.30
39493;DHT22;25176;51.060;3.720;2023-08-21T04:26:01;21.30;84.50
39493;DHT22;25176;51.060;3.720;2023-08-21T04:28:28;21.20;84.80
39493;DHT22;25176;51.060;3.720;2023-08-21T04:30:53;21.20;85.00
39493;DHT22;25176;51.060;3.720;2023-08-21T04:33:19;21.20;85.10
39493;DHT22;25176;51.060;3.720;2023-08-21T04:35:44;21.20;85.30
39493;DHT22;25176;51.060;3.720;2023-08-21T04:38:09;21.20;85.50
39493;DHT22;25176;51.060;3.720;2023-08-21T04:40:35;21.10;85.60
39493;DHT22;25176;51.060;3.720;2023-08-21T04:43:01;21.10;86.10
39493;DHT22;25176;51.060;3.720;2023-08-21T04:45:26;21.00;86.00
39493;DHT22;25176;51.060;3.720;2023-08-21T04:47:52;21.10;86.20
39493;DHT22;25176;51.060;3.720;2023-08-21T04:50:17;21.10;86.10
39493;DHT22;25176;51.060;3.720;2023-08-21T04:52:43;21.10;86.00
39493;DHT22;25176;51.060;3.720;2023-08-21T04:55:08;21.10;86.20
39493;DHT22;25176;51.060;3.720;2023-08-21T04:57:34;21.00;86.40
39493;DHT22;25176;51.060;3.720;2023-08-21T04:59:59;20.90;87.10
39493;DHT22;25176;51.060;3.720;2023-08-21T05:02:25;20.90;87.10
39493;DHT22;25176;51.060;3.720;2023-08-21T05:04:50;20.90;87.20
39493;DHT22;25176;51.060;3.720;2023-08-21T05:07:16;21.00;87.40
39493;DHT22;25176;51.060;3.720;2023-08-21T05:09:41;21.00;87.40
39493;DHT22;25176;51.060;3.720;2023-08-21T05:12:07;21.00;87.20
39493;DHT22;25176;51.060;3.720;2023-08-21T05:14:32;21.00;86.90
39493;DHT22;25176;51.060;3.720;2023-08-21T05:16:58;21.00;87.40
39493;DHT22;25176;51.060;3.720;2023-08-21T05:19:24;21.00;87.30
39493;DHT22;25176;51.060;3.720;2023-08-21T05:21:49;21.00;87.60
39493;DHT22;25176;51.060;3.720;2023-08-21T05:24:15;21.00;87.50
39493;DHT22;25176;51.060;3.720;2023-08-21T05:26:41;21.10;87.50
39493;DHT22;25176;51.060;3.720;2023-08-21T05:29:06;21.10;87.40
39493;DHT22;25176;51.060;3.720;2023-08-21T05:31:32;21.10;87.30
39493;DHT22;25176;51.060;3.720;2023-08-21T05:33:58;21.00;87.30
39493;DHT22;25176;51.060;3.720;2023-08-21T05:36:24;21.00;88.20
39493;DHT22;25176;51.060;3.720;2023-08-21T05:38:49;21.00;88.10
39493;DHT22;25176;51.060;3.720;2023-08-21T05:41:16;21.00;87.70
39493;DHT22;25176;51.060;3.720;2023-08-21T05:43:42;21.00;88.10
39493;DHT22;25176;51.060;3.720;2023-08-21T05:46:08;21.00;88.60
39493;DHT22;25176;51.060;3.720;2023-08-21T05:48:33;21.00;88.40
39493;DHT22;25176;51.060;3.720;2023-08-21T05:50:59;21.00;88.60
39493;DHT22;25176;51.060;3.720;2023-08-21T05:53:25;21.00;88.80
39493;DHT22;25176;51.060;3.720;2023-08-21T05:55:50;21.00;88.50
39493;DHT22;25176;51.060;3.720;2023-08-21T05:58:16;21.00;88.40
39493;DHT22;25176;51.060;3.720;2023-08-21T06:00:41;21.10;88.20
39493;DHT22;25176;51.060;3.720;2023-08-21T06:03:07;21.00;88.40
39493;DHT22;25176;51.060;3.720;2023-08-21T06:05:33;21.10;88.40
39493;DHT22;25176;51.060;3.720;2023-08-21T06:07:58;21.20;88.10
39493;DHT22;25176;51.060;3.720;2023-08-21T06:10:23;21.30;88.10
39493;DHT22;25176;51.060;3.720;2023-08-21T06:12:49;21.20;88.00
39493;DHT22;25176;51.060;3.720;2023-08-21T06:15:16;21.20;88.50
39493;DHT22;25176;51.060;3.720;2023-08-21T06:17:42;21.20;88.80
39493;DHT22;25176;51.060;3.720;2023-08-21T06:20:07;21.20;88.60
39493;DHT22;25176;51.060;3.720;2023-08-21T06:22:37;21.20;88.80
39493;DHT22;25176;51.060;3.720;2023-08-21T06:25:03;21.30;88.70
39493;DHT22;25176;51.060;3.720;2023-08-21T06:27:28;21.20;88.70
39493;DHT22;25176;51.060;3.720;2023-08-21T06:29:54;21.30;89.30
39493;DHT22;25176;51.060;3.720;2023-08-21T06:32:19;21.40;89.20
39493;DHT22;25176;51.060;3.720;2023-08-21T06:34:45;21.40;89.50
39493;DHT22;25176;51.060;3.720;2023-08-21T06:37:10;21.30;89.80
39493;DHT22;25176;51.060;3.720;2023-08-21T06:39:38;21.30;90.10
39493;DHT22;25176;51.060;3.720;2023-08-21T06:42:03;21.40;90.20
39493;DHT22;25176;51.060;3.720;2023-08-21T06:44:29;21.60;90.30
39493;DHT22;25176;51.060;3.720;2023-08-21T06:46:54;21.70;90.00
39493;DHT22;25176;51.060;3.720;2023-08-21T06:49:20;21.80;89.50
39493;DHT22;25176;51.060;3.720;2023-08-21T06:51:45;21.80;90.00
39493;DHT22;25176;51.060;3.720;2023-08-21T06:54:11;21.90;90.00
39493;DHT22;25176;51.060;3.720;2023-08-21T06:56:36;21.90;89.80
39493;DHT22;25176;51.060;3.720;2023-08-21T06:59:02;21.70;89.90
39493;DHT22;25176;51.060;3.720;2023-08-21T07:01:28;21.70;90.20
39493;DHT22;25176;51.060;3.720;2023-08-21T07:03:54;21.70;90.30
39493;DHT22;25176;51.060;3.720;2023-08-21T07:06:19;21.80;90.50
39493;DHT22;25176;51.060;3.720;2023-08-21T07:08:45;21.80;90.50
39493;DHT22;25176;51.060;3.720;2023-08-21T07:11:11;21.80;90.50
39493;DHT22;25176;51.060;3.720;2023-08-21T07:13:37;21.90;90.50
39493;DHT22;25176;51.060;3.720;2023-08-21T07:16:03;22.00;90.50
39493;DHT22;25176;51.060;3.720;2023-08-21T07:18:32;22.10;90.30
39493;DHT22;25176;51.060;3.720;2023-08-21T07:20:57;22.60;90.40
39493;DHT22;25176;51.060;3.720;2023-08-21T07:23:23;24.40;88.30
39493;DHT22;25176;51.060;3.720;2023-08-21T07:25:48;26.70;81.40
39493;DHT22;25176;51.060;3.720;2023-08-21T07:28:14;29.10;74.90
39493;DHT22;25176;51.060;3.720;2023-08-21T07:30:39;31.10;68.90
39493;DHT22;25176;51.060;3.720;2023-08-21T07:33:05;32.70;67.00
39493;DHT22;25176;51.060;3.720;2023-08-21T07:35:31;33.30;64.10
39493;DHT22;25176;51.060;3.720;2023-08-21T07:37:56;35.10;61.10
39493;DHT22;25176;51.060;3.720;2023-08-21T07:40:22;36.60;58.70
39493;DHT22;25176;51.060;3.720;2023-08-21T07:42:47;37.50;56.40
39493;DHT22;25176;51.060;3.720;2023-08-21T07:45:13;38.40;56.10
39493;DHT22;25176;51.060;3.720;2023-08-21T07:47:38;38.70;54.80
39493;DHT22;25176;51.060;3.720;2023-08-21T07:50:05;39.60;54.00
39493;DHT22;25176;51.060;3.720;2023-08-21T07:52:31;40.10;51.90
39493;DHT22;25176;51.060;3.720;2023-08-21T07:54:56;40.40;51.40
39493;DHT22;25176;51.060;3.720;2023-08-21T07:57:24;41.30;51.60
39493;DHT22;25176;51.060;3.720;2023-08-21T07:59:49;42.10;50.20
39493;DHT22;25176;51.060;3.720;2023-08-21T08:02:15;42.60;49.60
39493;DHT22;25176;51.060;3.720;2023-08-21T08:04:42;42.40;49.00
39493;DHT22;25176;51.060;3.720;2023-08-21T08:07:08;43.30;48.90
39493;DHT22;25176;51.060;3.720;2023-08-21T08:09:33;44.20;47.40
39493;DHT22;25176;51.060;3.720;2023-08-21T08:11:59;44.90;47.20
39493;DHT22;25176;51.060;3.720;2023-08-21T08:14:25;45.20;46.20
39493;DHT22;25176;51.060;3.720;2023-08-21T08:16:50;44.60;46.30
39493;DHT22;25176;51.060;3.720;2023-08-21T08:19:16;45.00;46.50
39493;DHT22;25176;51.060;3.720;2023-08-21T08:21:41;46.00;45.80
39493;DHT22;25176;51.060;3.720;2023-08-21T08:24:07;45.70;45.60
39493;DHT22;25176;51.060;3.720;2023-08-21T08:26:32;45.90;45.70
39493;DHT22;25176;51.060;3.720;2023-08-21T08:28:58;46.40;45.00
39493;DHT22;25176;51.060;3.720;2023-08-21T08:31:23;47.00;44.70
39493;DHT22;25176;51.060;3.720;2023-08-21T08:33:50;47.70;43.60
39493;DHT22;25176;51.060;3.720;2023-08-21T08:36:16;47.00;43.90
39493;DHT22;25176;51.060;3.720;2023-08-21T08:38:42;47.10;43.80
39493;DHT22;25176;51.060;3.720;2023-08-21T08:41:12;48.10;43.70
39493;DHT22;25176;51.060;3.720;2023-08-21T08:43:40;49.20;43.00
39493;DHT22;25176;51.060;3.720;2023-08-21T08:46:06;49.70;42.80
39493;DHT22;25176;51.060;3.720;2023-08-21T08:48:33;50.40;41.90
39493;DHT22;25176;51.060;3.720;2023-08-21T08:50:59;50.80;41.60
39493;DHT22;25176;51.060;3.720;2023-08-21T08:53:24;51.10;41.20
39493;DHT22;25176;51.060;3.720;2023-08-21T08:55:51;51.00;40.60
39493;DHT22;25176;51.060;3.720;2023-08-21T08:58:16;50.90;40.70
39493;DHT22;25176;51.060;3.720;2023-08-21T09:00:42;50.90;40.10
39493;DHT22;25176;51.060;3.720;2023-08-21T09:03:08;50.60;40.40
39493;DHT22;25176;51.060;3.720;2023-08-21T09:05:35;50.10;41.00
39493;DHT22;25176;51.060;3.720;2023-08-21T09:08:11;51.00;40.30
39493;DHT22;25176;51.060;3.720;2023-08-21T09:10:37;51.30;40.00
39493;DHT22;25176;51.060;3.720;2023-08-21T09:13:13;51.60;39.40
39493;DHT22;25176;51.060;3.720;2023-08-21T09:15:40;51.70;39.30
39493;DHT22;25176;51.060;3.720;2023-08-21T09:18:08;50.40;40.10
39493;DHT22;25176;51.060;3.720;2023-08-21T09:20:34;51.60;39.40
39493;DHT22;25176;51.060;3.720;2023-08-21T09:23:00;51.80;39.00
39493;DHT22;25176;51.060;3.720;2023-08-21T09:25:25;52.50;39.10
39493;DHT22;25176;51.060;3.720;2023-08-21T09:27:51;52.40;38.70
39493;DHT22;25176;51.060;3.720;2023-08-21T09:30:18;51.60;38.90
39493;DHT22;25176;51.060;3.720;2023-08-21T09:35:19;52.50;38.50
39493;DHT22;25176;51.060;3.720;2023-08-21T09:37:46;51.60;38.60
39493;DHT22;25176;51.060;3.720;2023-08-21T09:40:11;52.20;38.00
39493;DHT22;25176;51.060;3.720;2023-08-21T09:42:39;53.20;37.70
39493;DHT22;25176;51.060;3.720;2023-08-21T09:45:04;53.50;37.70
39493;DHT22;25176;51.060;3.720;2023-08-21T09:47:30;54.20;37.50
39493;DHT22;25176;51.060;3.720;2023-08-21T09:49:56;54.50;37.10
39493;DHT22;25176;51.060;3.720;2023-08-21T09:52:22;54.90;36.90
39493;DHT22;25176;51.060;3.720;2023-08-21T09:54:48;53.90;36.90
39493;DHT22;25176;51.060;3.720;2023-08-21T09:57:14;55.20;36.70
39493;DHT22;25176;51.060;3.720;2023-08-21T09:59:41;55.20;36.10
39493;DHT22;25176;51.060;3.720;2023-08-21T10:02:07;55.10;36.10
39493;DHT22;25176;51.060;3.720;2023-08-21T10:04:34;55.40;35.90
39493;DHT22;25176;51.060;3.720;2023-08-21T10:07:00;54.70;35.90
39493;DHT22;25176;51.060;3.720;2023-08-21T10:09:28;55.30;36.20
39493;DHT22;25176;51.060;3.720;2023-08-21T10:11:54;56.00;36.00
39493;DHT22;25176;51.060;3.720;2023-08-21T10:14:21;55.80;35.70
39493;DHT22;25176;51.060;3.720;2023-08-21T10:16:47;55.20;36.10
39493;DHT22;25176;51.060;3.720;2023-08-21T10:19:16;55.00;35.70
39493;DHT22;25176;51.060;3.720;2023-08-21T10:21:42;53.10;35.90
39493;DHT22;25176;51.060;3.720;2023-08-21T10:24:11;52.70;36.30
39493;DHT22;25176;51.060;3.720;2023-08-21T10:26:40;51.50;37.10
39493;DHT22;25176;51.060;3.720;2023-08-21T10:29:05;51.00;37.40
39493;DHT22;25176;51.060;3.720;2023-08-21T10:31:35;51.00;37.10
39493;DHT22;25176;51.060;3.720;2023-08-21T10:34:02;50.60;37.40
39493;DHT22;25176;51.060;3.720;2023-08-21T10:39:24;50.30;37.90
39493;DHT22;25176;51.060;3.720;2023-08-21T10:45:05;48.10;37.90
39493;DHT22;25176;51.060;3.720;2023-08-21T10:52:22;44.10;40.00
39493;DHT22;25176;51.060;3.720;2023-08-21T10:54:49;42.20;41.20
39493;DHT22;25176;51.060;3.720;2023-08-21T10:57:15;40.10;43.10
39493;DHT22;25176;51.060;3.720;2023-08-21T11:02:15;40.10;42.90
39493;DHT22;25176;51.060;3.720;2023-08-21T11:04:41;39.10;43.00
39493;DHT22;25176;51.060;3.720;2023-08-21T11:07:07;38.90;43.70
39493;DHT22;25176;51.060;3.720;2023-08-21T11:09:35;38.00;44.10
39493;DHT22;25176;51.060;3.720;2023-08-21T11:12:04;37.10;45.20
39493;DHT22;25176;51.060;3.720;2023-08-21T11:14:30;36.10;45.80
39493;DHT22;25176;51.060;3.720;2023-08-21T11:16:55;35.20;46.40
39493;DHT22;25176;51.060;3.720;2023-08-21T11:19:21;34.30;48.10
39493;DHT22;25176;51.060;3.720;2023-08-21T11:21:53;33.50;48.40
39493;DHT22;25176;51.060;3.720;2023-08-21T11:24:18;32.70;48.90
39493;DHT22;25176;51.060;3.720;2023-08-21T11:26:44;32.50;50.40
39493;DHT22;25176;51.060;3.720;2023-08-21T11:29:09;32.10;50.80
39493;DHT22;25176;51.060;3.720;2023-08-21T11:31:35;31.70;51.50
39493;DHT22;25176;51.060;3.720;2023-08-21T11:34:01;31.50;52.30
39493;DHT22;25176;51.060;3.720;2023-08-21T11:36:26;31.10;53.10
39493;DHT22;25176;51.060;3.720;2023-08-21T11:38:58;30.70;52.90
39493;DHT22;25176;51.060;3.720;2023-08-21T11:41:25;30.50;52.60
39493;DHT22;25176;51.060;3.720;2023-08-21T11:43:50;30.30;54.10
39493;DHT22;25176;51.060;3.720;2023-08-21T11:46:17;30.10;54.80
39493;DHT22;25176;51.060;3.720;2023-08-21T11:48:43;30.00;55.40
39493;DHT22;25176;51.060;3.720;2023-08-21T11:51:10;29.80;54.70
39493;DHT22;25176;51.060;3.720;2023-08-21T11:53:40;29.70;55.10
39493;DHT22;25176;51.060;3.720;2023-08-21T11:56:15;29.60;56.80
39493;DHT22;25176;51.060;3.720;2023-08-21T11:58:41;29.60;57.10
39493;DHT22;25176;51.060;3.720;2023-08-21T12:01:07;29.50;56.90
39493;DHT22;25176;51.060;3.720;2023-08-21T12:03:37;29.50;56.40
39493;DHT22;25176;51.060;3.720;2023-08-21T12:06:07;29.50;56.20
39493;DHT22;25176;51.060;3.720;2023-08-21T12:08:32;29.50;56.70
39493;DHT22;25176;51.060;3.720;2023-08-21T12:10:58;29.40;57.10
39493;DHT22;25176;51.060;3.720;2023-08-21T12:13:23;29.30;57.60
39493;DHT22;25176;51.060;3.720;2023-08-21T12:15:49;29.40;57.40
39493;DHT22;25176;51.060;3.720;2023-08-21T12:18:14;29.40;57.90
39493;DHT22;25176;51.060;3.720;2023-08-21T12:20:40;29.30;57.90
39493;DHT22;25176;51.060;3.720;2023-08-21T12:23:05;29.30;58.20
39493;DHT22;25176;51.060;3.720;2023-08-21T12:25:31;29.10;58.10
39493;DHT22;25176;51.060;3.720;2023-08-21T12:27:57;28.70;58.70
39493;DHT22;25176;51.060;3.720;2023-08-21T12:30:22;28.70;58.70
39493;DHT22;25176;51.060;3.720;2023-08-21T12:32:48;29.00;58.70
39493;DHT22;25176;51.060;3.720;2023-08-21T12:35:13;29.10;58.10
39493;DHT22;25176;51.060;3.720;2023-08-21T12:37:39;29.00;58.60
39493;DHT22;25176;51.060;3.720;2023-08-21T12:40:05;29.10;58.50
39493;DHT22;25176;51.060;3.720;2023-08-21T12:42:31;28.90;57.80
39493;DHT22;25176;51.060;3.720;2023-08-21T12:44:56;28.80;57.00
39493;DHT22;25176;51.060;3.720;2023-08-21T12:47:22;29.00;57.30
39493;DHT22;25176;51.060;3.720;2023-08-21T12:49:47;29.10;57.70
39493;DHT22;25176;51.060;3.720;2023-08-21T12:52:13;29.30;58.10
39493;DHT22;25176;51.060;3.720;2023-08-21T12:54:38;29.40;57.30
39493;DHT22;25176;51.060;3.720;2023-08-21T12:57:04;29.30;58.40
39493;DHT22;25176;51.060;3.720;2023-08-21T12:59:29;29.50;58.50
39493;DHT22;25176;51.060;3.720;2023-08-21T13:01:55;29.50;58.50
39493;DHT22;25176;51.060;3.720;2023-08-21T13:04:21;29.60;58.30
39493;DHT22;25176;51.060;3.720;2023-08-21T13:06:46;29.50;57.00
39493;DHT22;25176;51.060;3.720;2023-08-21T13:09:12;29.40;55.40
39493;DHT22;25176;51.060;3.720;2023-08-21T13:11:37;29.30;55.20
39493;DHT22;25176;51.060;3.720;2023-08-21T13:14:03;28.80;56.90
39493;DHT22;25176;51.060;3.720;2023-08-21T13:16:28;28.80;57.80
39493;DHT22;25176;51.060;3.720;2023-08-21T13:18:54;29.10;57.20
39493;DHT22;25176;51.060;3.720;2023-08-21T13:21:19;29.30;56.50
39493;DHT22;25176;51.060;3.720;2023-08-21T13:23:45;29.40;55.70
39493;DHT22;25176;51.060;3.720;2023-08-21T13:26:10;29.40;56.30
39493;DHT22;25176;51.060;3.720;2023-08-21T13:28:36;29.40;55.10
39493;DHT22;25176;51.060;3.720;2023-08-21T13:31:01;29.50;56.90
39493;DHT22;25176;51.060;3.720;2023-08-21T13:33:28;29.50;56.80
39493;DHT22;25176;51.060;3.720;2023-08-21T13:35:53;29.60;55.90
39493;DHT22;25176;51.060;3.720;2023-08-21T13:38:19;29.60;56.10
39493;DHT22;25176;51.060;3.720;2023-08-21T13:40:44;29.50;56.20
39493;DHT22;25176;51.060;3.720;2023-08-21T13:43:10;29.30;56.80
39493;DHT22;25176;51.060;3.720;2023-08-21T13:45:37;29.30;57.10
39493;DHT22;25176;51.060;3.720;2023-08-21T13:48:03;29.50;57.10
39493;DHT22;25176;51.060;3.720;2023-08-21T13:50:29;29.40;56.20
39493;DHT22;25176;51.060;3.720;2023-08-21T13:52:55;29.60;54.70
39493;DHT22;25176;51.060;3.720;2023-08-21T13:55:21;29.60;54.90
39493;DHT22;25176;51.060;3.720;2023-08-21T13:57:47;29.50;53.80
39493;DHT22;25176;51.060;3.720;2023-08-21T14:00:13;29.40;53.90
39493;DHT22;25176;51.060;3.720;2023-08-21T14:02:39;29.40;54.60
39493;DHT22;25176;51.060;3.720;2023-08-21T14:05:06;29.50;55.00
39493;DHT22;25176;51.060;3.720;2023-08-21T14:07:32;29.50;55.40
39493;DHT22;25176;51.060;3.720;2023-08-21T14:09:58;29.50;54.90
39493;DHT22;25176;51.060;3.720;2023-08-21T14:12:23;29.50;55.40
39493;DHT22;25176;51.060;3.720;2023-08-21T14:14:49;29.50;55.90
39493;DHT22;25176;51.060;3.720;2023-08-21T14:17:15;29.70;55.80
39493;DHT22;25176;51.060;3.720;2023-08-21T14:19:40;29.60;54.80
39493;DHT22;25176;51.060;3.720;2023-08-21T14:22:06;29.60;55.50
39493;DHT22;25176;51.060;3.720;2023-08-21T14:24:32;29.50;55.40
39493;DHT22;25176;51.060;3.720;2023-08-21T14:26:58;29.50;53.70
39493;DHT22;25176;51.060;3.720;2023-08-21T14:29:23;29.50;53.00
39493;DHT22;25176;51.060;3.720;2023-08-21T14:31:49;29.60;54.00
39493;DHT22;25176;51.060;3.720;2023-08-21T14:34:14;29.70;53.60
39493;DHT22;25176;51.060;3.720;2023-08-21T14:36:41;29.80;53.80
39493;DHT22;25176;51.060;3.720;2023-08-21T14:39:07;29.80;54.90
39493;DHT22;25176;51.060;3.720;2023-08-21T14:41:33;29.60;55.10
39493;DHT22;25176;51.060;3.720;2023-08-21T14:43:58;29.60;55.50
39493;DHT22;25176;51.060;3.720;2023-08-21T14:46:24;29.50;56.60
39493;DHT22;25176;51.060;3.720;2023-08-21T14:48:49;29.50;55.90
39493;DHT22;25176;51.060;3.720;2023-08-21T14:51:15;29.50;55.50
39493;DHT22;25176;51.060;3.720;2023-08-21T14:53:40;29.50;54.90
39493;DHT22;25176;51.060;3.720;2023-08-21T14:56:06;29.30;55.30
39493;DHT22;25176;51.060;3.720;2023-08-21T14:58:32;29.40;55.10
39493;DHT22;25176;51.060;3.720;2023-08-21T15:00:57;29.50;55.20
39493;DHT22;25176;51.060;3.720;2023-08-21T15:03:23;29.50;54.80
39493;DHT22;25176;51.060;3.720;2023-08-21T15:05:48;29.60;55.10
39493;DHT22;25176;51.060;3.720;2023-08-21T15:08:14;29.50;56.00
39493;DHT22;25176;51.060;3.720;2023-08-21T15:10:39;29.50;56.30
39493;DHT22;25176;51.060;3.720;2023-08-21T15:13:05;29.50;56.60
39493;DHT22;25176;51.060;3.720;2023-08-21T15:15:30;29.40;56.60
39493;DHT22;25176;51.060;3.720;2023-08-21T15:17:56;29.40;55.90
39493;DHT22;25176;51.060;3.720;2023-08-21T15:20:21;29.40;54.40
39493;DHT22;25176;51.060;3.720;2023-08-21T15:22:47;29.40;54.60
39493;DHT22;25176;51.060;3.720;2023-08-21T15:25:12;29.30;55.00
39493;DHT22;25176;51.060;3.720;2023-08-21T15:27:40;29.10;54.70
39493;DHT22;25176;51.060;3.720;2023-08-21T15:30:08;29.10;54.30
39493;DHT22;25176;51.060;3.720;2023-08-21T15:32:34;28.90;54.30
39493;DHT22;25176;51.060;3.720;2023-08-21T15:35:01;29.00;55.10
39493;DHT22;25176;51.060;3.720;2023-08-21T15:37:29;28.90;55.50
39493;DHT22;25176;51.060;3.720;2023-08-21T15:39:54;29.00;55.50
39493;DHT22;25176;51.060;3.720;2023-08-21T15:42:20;29.00;55.30
39493;DHT22;25176;51.060;3.720;2023-08-21T15:44:45;29.00;55.10